Time;durP1;ratioP1;P1;durP2;ratioP2;P2;SDS_P1;SDS_P2;PMS_P1;PMS_P2;Temp;Humidity;BMP_temperature;BMP_pressure;BME280_temperature;BME280_humidity;BME280_pressure;Samples;Min_cycle;Max_cycle;Signal;HPM_P1;HPM_P2
2022/09/17 00:01:47;;;;;;;4.82;1.05;;;11.00;99.90;;;;;;4938820;28;20615;-78
2022/09/17 00:04:12;;;;;;;2.67;1.10;;;11.00;99.90;;;;;;4945138;28;20035;-78
2022/09/17 00:06:38;;;;;;;3.53;1.00;;;11.10;99.90;;;;;;4962149;28;20031;-78
2022/09/17 00:09:05;;;;;;;11.48;1.55;;;11.00;99.90;;;;;;4931253;28;20553;-78
2022/09/17 00:11:31;;;;;;;6.05;1.55;;;11.00;99.90;;;;;;4942233;28;20511;-78
2022/09/17 00:13:59;;;;;;;6.93;1.33;;;10.90;99.90;;;;;;4945208;28;20039;-79
2022/09/17 00:16:46;;;;;;;6.30;1.13;;;10.80;99.90;;;;;;4941224;28;20038;-78
2022/09/17 00:19:17;;;;;;;4.78;1.00;;;10.80;99.90;;;;;;4947746;28;20509;-78
2022/09/17 00:21:42;;;;;;;4.55;1.33;;;10.90;99.90;;;;;;4959720;28;20115;-78
2022/09/17 00:24:09;;;;;;;8.07;1.63;;;10.90;99.90;;;;;;4960646;28;20043;-78
2022/09/17 00:26:35;;;;;;;6.70;0.90;;;10.80;99.90;;;;;;4930974;28;20058;-79
2022/09/17 00:29:01;;;;;;;7.38;1.85;;;10.80;99.90;;;;;;4949018;28;20046;-79
2022/09/17 00:31:27;;;;;;;11.10;1.45;;;10.70;99.90;;;;;;4948134;28;20039;-79
2022/09/17 00:33:53;;;;;;;6.30;0.95;;;10.80;99.90;;;;;;4932064;28;20106;-78
2022/09/17 00:36:19;;;;;;;6.75;1.00;;;10.80;99.90;;;;;;4944703;28;20035;-78
2022/09/17 00:38:48;;;;;;;8.75;1.50;;;10.80;99.90;;;;;;4963728;28;20031;-78
2022/09/17 00:41:14;;;;;;;6.43;1.30;;;10.80;99.90;;;;;;4965160;28;20027;-78
2022/09/17 00:43:51;;;;;;;4.85;0.90;;;10.80;99.90;;;;;;4949919;28;20051;-79
2022/09/17 00:46:20;;;;;;;7.57;1.55;;;10.80;99.90;;;;;;4947485;28;20597;-78
2022/09/17 00:48:46;;;;;;;6.07;1.60;;;10.70;99.90;;;;;;4961836;28;20038;-78
2022/09/17 00:51:11;;;;;;;7.10;1.50;;;10.60;99.90;;;;;;4967559;28;20545;-78
2022/09/17 00:53:37;;;;;;;5.78;1.30;;;10.70;99.90;;;;;;4944132;28;20032;-78
2022/09/17 00:56:10;;;;;;;8.73;1.70;;;10.60;99.90;;;;;;4928743;28;20058;-79
2022/09/17 00:58:36;;;;;;;7.15;2.13;;;10.60;99.90;;;;;;4935915;28;20556;-79
2022/09/17 01:01:02;;;;;;;8.50;2.00;;;10.60;99.90;;;;;;4944687;28;20031;-79
2022/09/17 01:03:27;;;;;;;7.50;1.98;;;10.50;99.90;;;;;;4947617;28;20505;-78
2022/09/17 01:05:53;;;;;;;11.32;1.85;;;10.50;99.90;;;;;;4959731;28;20048;-78
2022/09/17 01:08:33;;;;;;;7.45;1.20;;;10.60;99.90;;;;;;4959176;28;20027;-79
2022/09/17 01:11:29;;;;;;;5.55;1.40;;;10.60;99.90;;;;;;4961939;28;20494;-78
2022/09/17 01:14:22;;;;;;;14.68;1.80;;;10.60;99.90;;;;;;4960672;28;20145;-78
2022/09/17 01:16:59;;;;;;;9.10;1.80;;;10.60;99.90;;;;;;4948069;28;20459;-79
2022/09/17 01:19:49;;;;;;;13.38;2.20;;;10.60;99.90;;;;;;4974819;28;20038;-79
2022/09/17 01:22:36;;;;;;;13.93;2.00;;;10.50;99.90;;;;;;4960676;28;20479;-78
2022/09/17 01:25:24;;;;;;;5.63;1.55;;;10.50;99.90;;;;;;4962179;28;20046;-78
2022/09/17 01:28:04;;;;;;;9.55;2.00;;;10.50;99.90;;;;;;4962489;28;20050;-78
2022/09/17 01:30:58;;;;;;;14.30;1.95;;;10.50;99.90;;;;;;4961527;28;20452;-78
2022/09/17 01:33:38;;;;;;;6.90;1.63;;;10.40;99.90;;;;;;4963701;28;20122;-78
2022/09/17 01:36:16;;;;;;;9.18;1.90;;;10.30;99.90;;;;;;4960131;28;20038;-78
2022/09/17 01:38:50;;;;;;;7.72;2.70;;;10.40;99.90;;;;;;4975164;28;20110;-78
2022/09/17 01:41:46;;;;;;;3.33;1.42;;;10.30;99.90;;;;;;4961613;28;20513;-78
2022/09/17 01:44:32;;;;;;;8.55;1.90;;;10.20;99.90;;;;;;4975128;28;20098;-78
2022/09/17 01:47:06;;;;;;;6.18;1.73;;;10.10;99.90;;;;;;4955053;28;20090;-78
2022/09/17 01:49:32;;;;;;;9.27;2.03;;;10.20;99.90;;;;;;4957538;28;20027;-78
2022/09/17 01:51:58;;;;;;;7.07;1.48;;;10.10;99.90;;;;;;4942347;28;20447;-78
2022/09/17 01:54:26;;;;;;;13.02;2.53;;;10.10;99.90;;;;;;4959065;28;20727;-78
2022/09/17 01:57:08;;;;;;;8.82;2.22;;;10.10;99.90;;;;;;4928854;28;20035;-78
2022/09/17 01:59:40;;;;;;;8.48;2.15;;;10.10;99.90;;;;;;4962691;28;20090;-78
2022/09/17 02:02:15;;;;;;;10.10;2.67;;;10.10;99.90;;;;;;4945555;28;20043;-78
2022/09/17 02:04:47;;;;;;;11.10;2.10;;;10.10;99.90;;;;;;4961134;28;20086;-78
2022/09/17 02:07:21;;;;;;;11.25;2.55;;;10.10;99.90;;;;;;4941704;28;20034;-78
2022/09/17 02:09:52;;;;;;;11.65;2.10;;;10.10;99.90;;;;;;4943683;28;20032;-78
2022/09/17 02:12:20;;;;;;;9.45;2.03;;;10.20;99.90;;;;;;4948380;28;20062;-78
2022/09/17 02:14:51;;;;;;;7.82;1.80;;;10.20;99.90;;;;;;4939354;28;20495;-77
2022/09/17 02:17:23;;;;;;;6.25;1.67;;;10.30;99.90;;;;;;4946975;28;20894;-79
2022/09/17 02:19:49;;;;;;;12.15;2.47;;;10.20;99.90;;;;;;4962749;28;20042;-79
2022/09/17 02:22:21;;;;;;;12.55;2.88;;;10.30;99.90;;;;;;4958864;28;20483;-80
2022/09/17 02:25:07;;;;;;;10.25;2.10;;;10.20;99.90;;;;;;4960245;28;20031;-77
2022/09/17 02:27:54;;;;;;;9.02;2.35;;;10.20;99.90;;;;;;4963927;28;20095;-79
2022/09/17 02:30:20;;;;;;;10.27;2.75;;;10.20;99.90;;;;;;4955660;28;20789;-77
2022/09/17 02:32:45;;;;;;;13.30;2.30;;;10.30;99.90;;;;;;4958635;28;20032;-79
2022/09/17 02:35:12;;;;;;;9.82;1.95;;;10.20;99.90;;;;;;4942016;28;20487;-79
2022/09/17 02:37:38;;;;;;;16.42;4.38;;;10.20;99.90;;;;;;4958019;28;20038;-77
2022/09/17 02:40:05;;;;;;;7.53;1.70;;;10.00;99.90;;;;;;4960969;28;20039;-77
2022/09/17 02:42:58;;;;;;;9.85;1.98;;;10.20;99.90;;;;;;4945629;28;20457;-77
2022/09/17 02:45:45;;;;;;;18.73;3.13;;;10.20;99.90;;;;;;4954861;28;20035;-78
2022/09/17 02:48:32;;;;;;;11.30;2.33;;;10.20;99.90;;;;;;4961297;28;20446;-78
2022/09/17 02:51:19;;;;;;;6.13;1.55;;;10.10;99.90;;;;;;4951094;28;20031;-78
2022/09/17 02:53:55;;;;;;;6.93;1.73;;;10.20;99.90;;;;;;4954094;28;20045;-78
2022/09/17 02:56:29;;;;;;;15.13;2.85;;;10.10;99.90;;;;;;4961600;28;20458;-78
2022/09/17 02:59:05;;;;;;;11.38;2.85;;;10.10;99.90;;;;;;4955812;28;20498;-78
2022/09/17 03:01:43;;;;;;;9.93;1.85;;;10.10;99.90;;;;;;4942796;28;20033;-77
2022/09/17 03:04:09;;;;;;;11.50;2.13;;;10.00;99.90;;;;;;4946720;28;20035;-77
2022/09/17 03:06:34;;;;;;;13.30;2.08;;;10.00;99.90;;;;;;4927243;28;20042;-78
2022/09/17 03:09:00;;;;;;;10.23;2.10;;;10.00;99.90;;;;;;4954985;28;20407;-77
2022/09/17 03:11:26;;;;;;;10.82;1.98;;;9.90;99.90;;;;;;4929957;28;20042;-77
2022/09/17 03:13:51;;;;;;;12.50;2.15;;;10.00;99.90;;;;;;4945295;28;20166;-77
2022/09/17 03:16:17;;;;;;;10.40;1.50;;;9.90;99.90;;;;;;4957202;28;20039;-77
2022/09/17 03:18:42;;;;;;;13.98;2.13;;;9.90;99.90;;;;;;4942393;28;20027;-77
2022/09/17 03:21:08;;;;;;;9.05;2.35;;;9.90;99.90;;;;;;4959580;28;20030;-77
2022/09/17 03:23:34;;;;;;;9.60;1.90;;;9.90;99.90;;;;;;4956108;28;20019;-77
2022/09/17 03:25:59;;;;;;;7.70;1.70;;;9.90;99.90;;;;;;4947555;28;20530;-77
2022/09/17 03:28:25;;;;;;;15.43;2.58;;;9.90;99.90;;;;;;4941466;28;20125;-77
2022/09/17 03:30:51;;;;;;;9.48;1.77;;;9.90;99.90;;;;;;4944222;28;20468;-77
2022/09/17 03:33:17;;;;;;;13.35;2.03;;;9.90;99.90;;;;;;4961912;28;20026;-77
2022/09/17 03:35:43;;;;;;;8.13;1.73;;;9.90;99.90;;;;;;4962408;28;20030;-77
2022/09/17 03:38:09;;;;;;;17.90;2.58;;;10.00;99.90;;;;;;4958573;28;20554;-77
2022/09/17 03:40:35;;;;;;;14.10;1.92;;;10.00;99.90;;;;;;4929101;28;20042;-77
2022/09/17 03:43:00;;;;;;;11.27;2.45;;;10.00;99.90;;;;;;4929786;28;20564;-77
2022/09/17 03:45:26;;;;;;;10.20;1.80;;;10.00;99.90;;;;;;4927711;28;20792;-77
2022/09/17 03:47:51;;;;;;;11.32;2.92;;;10.00;99.90;;;;;;4938964;28;20051;-76
2022/09/17 03:50:17;;;;;;;20.30;3.47;;;10.00;99.90;;;;;;4938608;28;20054;-77
2022/09/17 03:52:43;;;;;;;15.38;2.83;;;9.90;99.90;;;;;;4940095;28;20102;-77
2022/09/17 03:55:08;;;;;;;8.75;2.08;;;9.90;99.90;;;;;;4956413;28;20527;-77
2022/09/17 03:57:34;;;;;;;5.18;1.92;;;9.90;99.90;;;;;;4961155;28;20082;-77
2022/09/17 03:59:59;;;;;;;14.07;2.63;;;10.00;99.90;;;;;;4926132;29;20376;-76
2022/09/17 04:02:25;;;;;;;17.95;3.00;;;10.00;99.90;;;;;;4926715;29;20174;-76
2022/09/17 04:04:51;;;;;;;13.95;2.55;;;9.90;99.90;;;;;;4929980;28;20376;-77
2022/09/17 04:07:17;;;;;;;11.57;2.80;;;10.00;99.90;;;;;;4947802;28;20646;-78
2022/09/17 04:09:42;;;;;;;10.88;2.55;;;9.90;99.90;;;;;;4931553;28;20114;-77
2022/09/17 04:12:08;;;;;;;4.45;1.35;;;9.90;99.90;;;;;;4940027;28;20068;-77
2022/09/17 04:14:33;;;;;;;9.82;2.20;;;9.90;99.90;;;;;;4943491;28;20042;-77
2022/09/17 04:16:59;;;;;;;14.63;2.25;;;10.00;99.90;;;;;;4958079;28;20031;-76
2022/09/17 04:19:24;;;;;;;7.50;1.70;;;9.90;99.90;;;;;;4956193;28;20035;-77
2022/09/17 04:21:50;;;;;;;6.45;1.63;;;10.00;99.90;;;;;;4941186;28;22209;-76
2022/09/17 04:24:16;;;;;;;9.15;1.67;;;9.90;99.90;;;;;;4940982;28;20024;-76
2022/09/17 04:26:41;;;;;;;10.85;2.10;;;9.80;99.90;;;;;;4942223;28;20131;-76
2022/09/17 04:29:07;;;;;;;10.35;2.63;;;9.70;99.90;;;;;;4942726;28;20063;-76
2022/09/17 04:31:32;;;;;;;12.00;2.00;;;9.80;99.90;;;;;;4924919;28;20086;-76
2022/09/17 04:33:58;;;;;;;13.32;2.40;;;9.80;99.90;;;;;;4922307;29;20032;-76
2022/09/17 04:36:23;;;;;;;10.75;2.85;;;9.80;99.90;;;;;;4923835;28;20035;-76
2022/09/17 04:38:49;;;;;;;14.18;2.50;;;9.90;99.90;;;;;;4940846;28;20040;-78
2022/09/17 04:41:15;;;;;;;7.05;1.67;;;9.80;99.90;;;;;;4944425;28;20031;-77
2022/09/17 04:43:40;;;;;;;9.13;1.95;;;9.90;99.90;;;;;;4930618;28;20395;-77
2022/09/17 04:46:06;;;;;;;16.42;2.40;;;9.90;99.90;;;;;;4930731;28;20407;-76
2022/09/17 04:48:31;;;;;;;11.88;2.40;;;9.90;99.90;;;;;;4947651;28;20028;-76
2022/09/17 04:50:57;;;;;;;9.98;2.15;;;9.90;99.90;;;;;;4944708;28;20041;-76
2022/09/17 04:53:23;;;;;;;10.27;2.45;;;10.00;99.90;;;;;;4944303;28;20349;-76
2022/09/17 04:55:48;;;;;;;18.02;2.72;;;10.00;99.90;;;;;;4928044;28;20041;-78
2022/09/17 04:58:14;;;;;;;11.80;2.33;;;9.90;99.90;;;;;;4943382;28;20514;-76
2022/09/17 05:00:41;;;;;;;7.72;1.85;;;9.90;99.90;;;;;;4946712;28;20030;-78
2022/09/17 05:03:06;;;;;;;9.65;1.90;;;9.90;99.90;;;;;;4943489;28;20050;-76
2022/09/17 05:05:32;;;;;;;10.95;2.72;;;9.90;99.90;;;;;;4943963;28;20059;-78
2022/09/17 05:07:57;;;;;;;13.77;2.78;;;10.00;99.90;;;;;;4931588;28;20043;-76
2022/09/17 05:10:23;;;;;;;9.27;1.67;;;10.00;99.90;;;;;;4962597;28;20475;-77
2022/09/17 05:12:53;;;;;;;10.95;1.90;;;10.00;99.90;;;;;;4948046;28;20030;-79
2022/09/17 05:15:19;;;;;;;14.15;3.38;;;10.00;99.90;;;;;;4944591;28;20134;-75
2022/09/17 05:17:45;;;;;;;13.93;2.78;;;9.90;99.90;;;;;;4928995;28;20110;-78
2022/09/17 05:20:11;;;;;;;13.13;2.67;;;9.90;99.90;;;;;;4943641;28;20031;-78
2022/09/17 05:22:43;;;;;;;15.88;2.42;;;9.90;99.90;;;;;;4943145;28;20094;-78
2022/09/17 05:25:09;;;;;;;7.80;2.45;;;9.80;99.90;;;;;;4944482;28;20039;-78
2022/09/17 05:27:34;;;;;;;5.88;2.03;;;9.80;99.90;;;;;;4961500;28;20094;-79
2022/09/17 05:30:00;;;;;;;9.23;1.83;;;9.80;99.90;;;;;;4948246;28;20487;-78
2022/09/17 05:32:25;;;;;;;9.63;2.25;;;9.80;99.90;;;;;;4956046;28;20039;-78
2022/09/17 05:34:51;;;;;;;12.45;2.25;;;9.80;99.90;;;;;;4927148;28;20068;-78
2022/09/17 05:37:16;;;;;;;10.27;1.77;;;9.90;99.90;;;;;;4946563;28;20035;-78
2022/09/17 05:39:42;;;;;;;7.55;1.73;;;9.90;99.90;;;;;;4942347;28;20059;-78
2022/09/17 05:42:07;;;;;;;8.50;1.85;;;9.90;99.90;;;;;;4941587;28;20099;-78
2022/09/17 05:44:33;;;;;;;11.52;4.03;;;10.00;99.90;;;;;;4948749;28;20038;-78
2022/09/17 05:46:58;;;;;;;8.15;1.90;;;10.10;99.90;;;;;;4928970;28;20042;-76
2022/09/17 05:49:24;;;;;;;13.70;2.35;;;10.10;99.90;;;;;;4930096;28;20107;-77
2022/09/17 05:51:50;;;;;;;8.52;1.88;;;10.20;99.90;;;;;;4956657;28;20031;-77
2022/09/17 05:54:16;;;;;;;8.90;1.58;;;10.20;99.90;;;;;;4925698;28;20090;-76
2022/09/17 05:56:41;;;;;;;8.60;1.85;;;10.20;99.90;;;;;;4945911;28;20042;-79
2022/09/17 05:59:07;;;;;;;13.68;2.45;;;10.30;99.90;;;;;;4961556;28;20043;-76
2022/09/17 06:01:32;;;;;;;7.35;1.95;;;10.30;99.90;;;;;;4961705;28;20042;-76
2022/09/17 06:03:59;;;;;;;6.93;1.52;;;10.30;99.90;;;;;;4963122;28;20026;-76
2022/09/17 06:06:28;;;;;;;9.95;2.03;;;10.30;99.90;;;;;;4964655;28;20027;-77
2022/09/17 06:08:53;;;;;;;10.10;2.13;;;10.30;99.90;;;;;;4963128;28;20078;-76
2022/09/17 06:11:19;;;;;;;14.57;2.20;;;10.30;99.90;;;;;;4964636;28;20023;-77
2022/09/17 06:13:45;;;;;;;7.75;1.50;;;10.40;99.90;;;;;;4958116;28;20042;-77
2022/09/17 06:16:11;;;;;;;9.10;1.67;;;10.30;99.90;;;;;;4962599;28;20125;-76
2022/09/17 06:18:37;;;;;;;13.13;2.33;;;10.40;99.90;;;;;;4929241;28;20106;-76
2022/09/17 06:21:03;;;;;;;14.82;2.75;;;10.30;99.90;;;;;;4960935;28;20402;-76
2022/09/17 06:23:34;;;;;;;7.88;1.90;;;10.40;99.90;;;;;;4927319;28;20039;-76
2022/09/17 06:26:01;;;;;;;11.07;3.25;;;10.40;99.90;;;;;;4947777;28;20778;-76
2022/09/17 06:28:26;;;;;;;11.40;1.63;;;10.50;99.90;;;;;;4944645;28;20027;-76
2022/09/17 06:30:53;;;;;;;12.80;2.25;;;10.50;99.90;;;;;;4945708;28;20041;-76
2022/09/17 06:33:19;;;;;;;10.48;2.15;;;10.40;99.90;;;;;;4949926;28;20029;-76
2022/09/17 06:35:45;;;;;;;7.88;2.25;;;10.30;99.90;;;;;;4957239;28;20027;-77
2022/09/17 06:38:10;;;;;;;6.28;1.50;;;10.40;99.90;;;;;;4948216;28;20065;-76
2022/09/17 06:40:36;;;;;;;6.70;1.80;;;10.40;99.90;;;;;;4943286;28;20039;-76
2022/09/17 06:43:02;;;;;;;12.85;2.30;;;10.50;99.90;;;;;;4948080;28;20051;-76
2022/09/17 06:45:27;;;;;;;8.68;1.83;;;10.50;99.90;;;;;;4959650;28;20403;-76
2022/09/17 06:47:53;;;;;;;11.68;2.30;;;10.40;99.90;;;;;;4929204;28;20039;-76
2022/09/17 06:50:18;;;;;;;6.93;1.55;;;10.40;99.90;;;;;;4947694;28;20034;-76
2022/09/17 06:52:51;;;;;;;12.95;2.63;;;10.40;99.90;;;;;;4958278;28;20054;-77
2022/09/17 06:55:16;;;;;;;10.52;2.65;;;10.50;99.90;;;;;;4940520;28;20050;-77
2022/09/17 06:57:42;;;;;;;11.43;1.83;;;10.50;99.90;;;;;;4961276;28;20034;-77
2022/09/17 07:00:08;;;;;;;10.05;2.30;;;10.50;99.90;;;;;;4946032;28;21010;-77
2022/09/17 07:02:34;;;;;;;12.23;2.28;;;10.50;99.90;;;;;;4942031;28;20042;-77
2022/09/17 07:05:00;;;;;;;6.60;1.50;;;10.60;99.90;;;;;;4942196;28;20636;-77
2022/09/17 07:07:25;;;;;;;7.35;1.58;;;10.60;99.90;;;;;;4942298;28;20443;-77
2022/09/17 07:09:52;;;;;;;8.57;1.33;;;10.60;99.90;;;;;;4926251;28;20840;-77
2022/09/17 07:12:18;;;;;;;11.90;2.10;;;10.60;99.90;;;;;;4942885;28;20034;-77
2022/09/17 07:14:44;;;;;;;11.15;2.00;;;10.60;99.90;;;;;;4959560;28;20098;-77
2022/09/17 07:17:10;;;;;;;4.57;2.30;;;10.60;99.90;;;;;;4944066;28;20102;-77
2022/09/17 07:19:36;;;;;;;9.35;1.73;;;10.70;99.90;;;;;;4959926;28;20039;-77
2022/09/17 07:22:02;;;;;;;7.28;1.88;;;10.70;99.90;;;;;;4958713;28;20057;-77
2022/09/17 07:24:27;;;;;;;6.35;1.80;;;10.70;99.90;;;;;;4929175;28;20487;-77
2022/09/17 07:26:53;;;;;;;8.73;1.85;;;10.70;99.90;;;;;;4947169;28;20039;-77
2022/09/17 07:29:20;;;;;;;4.90;1.60;;;10.80;99.90;;;;;;4959823;28;20519;-77
2022/09/17 07:31:45;;;;;;;9.85;1.67;;;10.90;99.90;;;;;;4958153;28;20110;-78
2022/09/17 07:34:11;;;;;;;8.43;1.95;;;11.10;99.90;;;;;;4964271;28;20121;-77
2022/09/17 07:36:37;;;;;;;11.98;1.67;;;11.20;99.90;;;;;;4963904;28;20045;-77
2022/09/17 07:39:02;;;;;;;12.55;2.13;;;11.30;99.90;;;;;;4950516;28;20042;-77
2022/09/17 07:41:28;;;;;;;10.73;1.73;;;11.40;99.90;;;;;;4950957;28;20035;-77
2022/09/17 07:43:54;;;;;;;16.48;2.30;;;11.60;99.90;;;;;;4931561;28;20024;-77
2022/09/17 07:46:20;;;;;;;8.60;2.85;;;11.80;99.90;;;;;;4963150;28;20038;-77
2022/09/17 07:48:46;;;;;;;10.13;1.88;;;12.00;99.90;;;;;;4949116;28;20057;-77
2022/09/17 07:51:20;;;;;;;6.32;1.40;;;12.00;99.90;;;;;;4965053;28;20104;-77
2022/09/17 07:53:46;;;;;;;7.55;2.10;;;12.00;99.90;;;;;;4942935;28;20059;-77
2022/09/17 07:56:12;;;;;;;8.10;1.63;;;12.00;99.90;;;;;;4966350;28;20039;-77
2022/09/17 07:58:37;;;;;;;6.97;1.35;;;12.10;99.90;;;;;;4965250;28;20038;-78
2022/09/17 08:01:08;;;;;;;13.15;2.90;;;12.30;99.90;;;;;;4947921;28;20444;-78
2022/09/17 08:03:34;;;;;;;17.08;2.20;;;12.40;99.90;;;;;;4944108;28;20122;-77
2022/09/17 08:06:11;;;;;;;11.18;1.80;;;12.50;99.90;;;;;;4944700;28;20035;-77
2022/09/17 08:08:36;;;;;;;9.60;1.77;;;12.50;99.90;;;;;;4945111;28;20656;-77
2022/09/17 08:11:21;;;;;;;8.30;1.77;;;12.40;99.90;;;;;;4947791;28;20027;-77
2022/09/17 08:13:48;;;;;;;4.95;0.95;;;12.40;99.90;;;;;;4929703;28;20089;-77
2022/09/17 08:16:14;;;;;;;10.60;1.65;;;12.40;99.90;;;;;;4962320;28;20475;-78
2022/09/17 08:18:40;;;;;;;10.73;1.88;;;12.50;99.90;;;;;;4961465;28;20031;-78
2022/09/17 08:21:06;;;;;;;5.95;1.15;;;12.50;99.90;;;;;;4947944;28;20134;-77
2022/09/17 08:23:34;;;;;;;9.02;1.55;;;12.50;99.90;;;;;;4965586;28;20026;-76
2022/09/17 08:26:00;;;;;;;14.55;1.27;;;12.60;99.90;;;;;;4963085;28;20030;-77
2022/09/17 08:28:28;;;;;;;9.00;1.25;;;12.60;99.90;;;;;;4947632;28;20027;-77
2022/09/17 08:30:58;;;;;;;2.65;1.10;;;12.50;99.90;;;;;;4949153;28;20034;-77
2022/09/17 08:33:23;;;;;;;8.25;1.50;;;12.70;99.90;;;;;;4930633;28;20046;-77
2022/09/17 08:35:53;;;;;;;8.75;1.65;;;13.00;99.90;;;;;;4928769;28;20447;-77
2022/09/17 08:38:19;;;;;;;7.00;1.40;;;12.90;99.90;;;;;;4966090;28;20557;-77
2022/09/17 08:40:55;;;;;;;8.85;2.08;;;12.80;99.90;;;;;;4963550;28;20026;-77
2022/09/17 08:43:21;;;;;;;5.72;1.40;;;12.80;99.90;;;;;;4958096;28;20065;-77
2022/09/17 08:45:54;;;;;;;5.78;1.40;;;12.90;99.90;;;;;;4957333;28;20050;-77
2022/09/17 08:48:19;;;;;;;7.70;1.52;;;13.20;99.90;;;;;;4951802;28;20038;-77
2022/09/17 08:50:45;;;;;;;4.97;1.40;;;13.50;99.90;;;;;;4946046;28;20033;-77
2022/09/17 08:53:16;;;;;;;9.30;1.40;;;13.40;99.90;;;;;;4946170;28;20142;-77
2022/09/17 08:55:48;;;;;;;8.35;1.30;;;13.40;99.90;;;;;;4961840;28;20521;-77
2022/09/17 08:58:20;;;;;;;13.77;2.20;;;13.90;99.90;;;;;;4945857;28;20042;-77
2022/09/17 09:00:57;;;;;;;12.15;1.95;;;13.90;99.90;;;;;;4957737;28;20035;-77
2022/09/17 09:03:58;;;;;;;10.52;1.40;;;13.70;99.90;;;;;;4946494;28;20042;-77
2022/09/17 09:06:26;;;;;;;6.93;1.52;;;13.70;99.90;;;;;;4963935;28;20023;-78
2022/09/17 09:08:58;;;;;;;13.35;1.42;;;13.70;99.90;;;;;;4959288;28;20412;-78
2022/09/17 09:11:26;;;;;;;5.43;1.02;;;13.70;99.90;;;;;;4929682;28;20031;-76
2022/09/17 09:14:05;;;;;;;4.97;0.90;;;14.20;99.90;;;;;;4934616;28;20471;-76
2022/09/17 09:16:32;;;;;;;6.07;0.77;;;14.00;99.90;;;;;;4948948;28;20038;-76
2022/09/17 09:19:29;;;;;;;9.43;1.35;;;14.00;99.90;;;;;;4930929;28;20043;-76
2022/09/17 09:22:05;;;;;;;7.10;0.98;;;14.00;99.90;;;;;;4958118;28;20051;-76
2022/09/17 09:24:41;;;;;;;5.65;0.98;;;13.90;99.90;;;;;;4926400;28;20491;-77
2022/09/17 09:27:15;;;;;;;7.22;1.08;;;14.10;99.90;;;;;;4942544;28;20046;-76
2022/09/17 09:30:01;;;;;;;4.85;0.85;;;14.00;99.90;;;;;;4933537;28;20086;-75
2022/09/17 09:32:35;;;;;;;5.78;0.88;;;14.10;99.90;;;;;;4946921;28;20031;-78
2022/09/17 09:35:12;;;;;;;3.78;0.50;;;14.10;99.90;;;;;;4965368;28;20229;-76
2022/09/17 09:37:38;;;;;;;5.55;0.65;;;14.40;99.90;;;;;;4959810;28;20046;-76
2022/09/17 09:40:21;;;;;;;4.03;0.47;;;14.60;99.90;;;;;;4943425;28;20499;-77
2022/09/17 09:42:48;;;;;;;4.43;0.65;;;14.80;99.90;;;;;;4947912;28;20041;-76
2022/09/17 09:45:21;;;;;;;2.88;0.60;;;14.70;99.90;;;;;;4965690;28;20031;-77
2022/09/17 09:47:58;;;;;;;5.63;1.13;;;14.80;99.90;;;;;;4958344;28;20031;-78
2022/09/17 09:50:32;;;;;;;1.45;0.50;;;14.80;99.90;;;;;;4941272;28;20209;-76
2022/09/17 09:53:20;;;;;;;2.50;0.43;;;15.00;99.90;;;;;;4959731;28;20121;-76
2022/09/17 09:56:01;;;;;;;4.30;0.50;;;15.10;99.90;;;;;;4953687;28;20042;-77
2022/09/17 09:58:35;;;;;;;2.35;0.47;;;15.20;99.90;;;;;;4964003;28;20035;-78
2022/09/17 10:01:01;;;;;;;4.93;0.85;;;15.30;99.90;;;;;;4948806;28;20089;-78
2022/09/17 10:03:31;;;;;;;6.13;0.45;;;15.40;99.90;;;;;;4928448;28;20031;-78
2022/09/17 10:06:04;;;;;;;8.60;0.80;;;15.50;99.90;;;;;;4962291;28;20042;-78
2022/09/17 10:08:35;;;;;;;8.60;0.73;;;15.60;99.90;;;;;;4947772;28;20027;-78
2022/09/17 10:11:04;;;;;;;4.95;0.70;;;15.50;99.90;;;;;;4939224;28;20071;-76
2022/09/17 10:13:37;;;;;;;4.35;0.70;;;15.50;99.90;;;;;;4975240;28;20066;-77
2022/09/17 10:16:30;;;;;;;4.00;0.82;;;15.40;99.90;;;;;;4938106;28;20562;-77
2022/09/17 10:19:23;;;;;;;3.35;0.60;;;15.10;99.90;;;;;;4930864;28;20043;-77
2022/09/17 10:21:49;;;;;;;2.40;0.47;;;15.10;99.90;;;;;;4939126;28;20116;-77
2022/09/17 10:24:24;;;;;;;4.35;0.50;;;15.00;99.90;;;;;;4945518;28;20036;-78
2022/09/17 10:26:50;;;;;;;2.90;0.82;;;15.00;99.90;;;;;;4952075;28;20038;-78
2022/09/17 10:29:17;;;;;;;3.30;0.68;;;15.00;99.90;;;;;;4926401;28;20027;-78
2022/09/17 10:31:50;;;;;;;3.83;0.70;;;15.00;99.90;;;;;;4941674;28;20404;-77
2022/09/17 10:34:26;;;;;;;6.18;0.82;;;15.20;99.90;;;;;;4934197;28;20031;-78
2022/09/17 10:36:53;;;;;;;3.50;0.98;;;15.00;99.90;;;;;;4958562;28;20510;-77
2022/09/17 10:39:43;;;;;;;2.92;0.68;;;15.40;99.90;;;;;;4940278;28;20038;-77
2022/09/17 10:42:16;;;;;;;2.83;0.52;;;15.50;99.90;;;;;;4943795;28;20130;-77
2022/09/17 10:44:57;;;;;;;2.50;0.55;;;15.80;99.90;;;;;;4946674;28;20036;-78
2022/09/17 10:47:35;;;;;;;6.50;0.85;;;16.00;99.90;;;;;;4943792;28;20035;-77
2022/09/17 10:50:03;;;;;;;6.60;0.65;;;16.00;99.90;;;;;;4936380;28;20035;-78
2022/09/17 10:52:33;;;;;;;4.65;0.75;;;16.00;99.90;;;;;;4926246;28;20035;-78
2022/09/17 10:55:16;;;;;;;6.10;0.60;;;15.70;99.90;;;;;;4936730;28;20047;-78
2022/09/17 10:58:01;;;;;;;2.58;0.70;;;15.40;99.90;;;;;;4950645;28;20086;-78
2022/09/17 11:00:51;;;;;;;3.50;0.57;;;15.10;99.90;;;;;;4941028;28;20035;-77
2022/09/17 11:03:51;;;;;;;9.60;0.63;;;14.60;99.90;;;;;;4952398;28;20120;-77
2022/09/17 11:06:35;;;;;;;2.38;0.63;;;14.20;99.90;;;;;;4944827;28;20612;-79
2022/09/17 11:09:13;;;;;;;2.92;0.60;;;14.00;99.90;;;;;;4942588;28;20035;-80
2022/09/17 11:11:54;;;;;;;34.30;2.10;;;13.90;99.90;;;;;;4940963;28;20118;-79
2022/09/17 11:14:54;;;;;;;37.03;2.10;;;13.60;99.90;;;;;;4923662;28;20038;-79
2022/09/17 11:17:30;;;;;;;61.75;2.78;;;13.00;99.90;;;;;;4598937;28;10000298;-79
2022/09/17 11:20:24;;;;;;;7.63;1.50;;;12.30;99.90;;;;;;4954977;28;20098;-78
2022/09/17 11:22:49;;;;;;;7.30;0.98;;;12.10;99.90;;;;;;4937251;28;20566;-78
2022/09/17 11:25:31;;;;;;;1.83;0.95;;;12.00;99.90;;;;;;4951673;28;20118;-78
2022/09/17 11:28:06;;;;;;;7.25;0.60;;;11.80;99.90;;;;;;4957819;28;20460;-80
2022/09/17 11:30:53;;;;;;;6.85;1.02;;;11.70;99.90;;;;;;4971994;28;20027;-80
2022/09/17 11:33:37;;;;;;;4.03;1.20;;;11.80;99.90;;;;;;4944534;28;20499;-80
2022/09/17 11:36:36;;;;;;;2.63;0.90;;;11.90;99.90;;;;;;4958099;28;20031;-79
2022/09/17 11:39:09;;;;;;;3.60;0.65;;;11.90;99.90;;;;;;4952493;28;20183;-80
2022/09/17 11:41:38;;;;;;;5.25;1.00;;;12.20;99.90;;;;;;4938213;28;20110;-78
2022/09/17 11:44:08;;;;;;;3.38;0.52;;;12.30;99.90;;;;;;4927833;28;20035;-77
2022/09/17 11:46:37;;;;;;;0.52;0.20;;;12.50;99.90;;;;;;4955123;28;20035;-79
2022/09/17 11:49:12;;;;;;;0.30;0.30;;;12.50;99.90;;;;;;4936821;28;20057;-77
2022/09/17 11:51:44;;;;;;;1.65;0.40;;;12.40;99.90;;;;;;4956830;28;20038;-78
2022/09/17 11:54:26;;;;;;;2.05;0.30;;;12.50;99.90;;;;;;4941266;28;20042;-78
2022/09/17 11:56:53;;;;;;;0.73;0.20;;;12.50;99.90;;;;;;4602905;28;9999826;-78
2022/09/17 11:59:38;;;;;;;0.93;0.30;;;12.50;99.90;;;;;;4944980;28;20024;-78
2022/09/17 12:02:25;;;;;;;0.93;0.30;;;12.50;99.90;;;;;;4961141;28;20093;-78
2022/09/17 12:05:02;;;;;;;2.05;0.60;;;12.60;99.90;;;;;;4955277;28;20044;-80
2022/09/17 12:07:32;;;;;;;1.08;0.20;;;12.50;99.90;;;;;;4927807;28;20059;-78
2022/09/17 12:10:16;;;;;;;1.55;0.30;;;12.60;99.90;;;;;;4942695;28;20071;-79
2022/09/17 12:12:47;;;;;;;0.77;0.32;;;12.80;99.90;;;;;;4950274;28;20563;-77
2022/09/17 12:15:16;;;;;;;1.27;0.55;;;12.80;99.90;;;;;;4941539;28;20114;-80
2022/09/17 12:17:46;;;;;;;4.43;0.70;;;13.00;99.90;;;;;;4941610;28;20139;-77
2022/09/17 12:20:31;;;;;;;6.35;2.53;;;13.30;99.90;;;;;;4959762;28;20046;-78
2022/09/17 12:22:57;;;;;;;1.77;0.40;;;13.10;99.90;;;;;;4970946;28;20042;-78
2022/09/17 12:25:23;;;;;;;1.33;0.57;;;13.20;99.90;;;;;;4947424;28;20027;-77
2022/09/17 12:27:58;;;;;;;1.00;0.63;;;13.40;99.90;;;;;;4929318;28;20081;-78
2022/09/17 12:30:28;;;;;;;1.63;0.50;;;13.80;99.90;;;;;;4966721;28;20031;-77
2022/09/17 12:33:06;;;;;;;3.58;0.50;;;13.80;99.90;;;;;;4979275;28;20036;-77
2022/09/17 12:35:53;;;;;;;8.30;1.00;;;13.70;99.90;;;;;;4947357;28;20372;-78
2022/09/17 12:38:46;;;;;;;3.53;1.00;;;13.70;99.90;;;;;;4963484;28;20031;-78
2022/09/17 12:41:32;;;;;;;2.03;0.52;;;13.80;99.90;;;;;;4948126;28;20519;-78
2022/09/17 12:44:28;;;;;;;9.30;1.23;;;13.90;99.90;;;;;;4938034;28;20043;-78
2022/09/17 12:47:16;;;;;;;3.05;0.82;;;14.10;99.90;;;;;;4961591;28;20506;-77
2022/09/17 12:50:13;;;;;;;2.92;0.80;;;14.20;99.90;;;;;;4940443;28;20035;-78
2022/09/17 12:52:44;;;;;;;;;;;14.30;99.90;;;;;;4961858;28;20455;-77
2022/09/17 12:55:22;;;;;;;2.38;0.47;;;14.40;99.90;;;;;;4960623;28;19918;-78
2022/09/17 12:57:59;;;;;;;2.00;0.65;;;14.60;99.90;;;;;;4956486;28;20035;-77
2022/09/17 13:00:25;;;;;;;3.35;0.77;;;14.40;99.90;;;;;;4961949;28;20094;-77
2022/09/17 13:03:01;;;;;;;5.82;1.45;;;14.50;99.90;;;;;;4927454;28;20124;-78
2022/09/17 13:05:48;;;;;;;3.60;0.63;;;14.60;99.90;;;;;;4958882;28;20039;-78
2022/09/17 13:08:25;;;;;;;2.33;0.70;;;14.70;99.90;;;;;;4954291;28;20254;-78